createdAt,value
2022-10-17T00:01:09.287Z,101218.34
2022-10-17T00:03:41.287Z,101216.28
2022-10-17T00:06:13.374Z,101220.53
2022-10-17T00:08:44.177Z,101226.75
2022-10-17T00:11:19.440Z,101225.13
2022-10-17T00:13:53.380Z,101225.91
2022-10-17T00:16:26.733Z,101230.34
2022-10-17T00:18:57.286Z,101235.81
2022-10-17T00:21:28.383Z,101238.56
2022-10-17T00:23:58.659Z,101236.31
2022-10-17T00:26:29.696Z,101242.63
2022-10-17T00:29:02.830Z,101246.28
2022-10-17T00:31:32.803Z,101243.75
2022-10-17T00:34:02.748Z,101252.78
2022-10-17T00:36:32.933Z,101239.78
2022-10-17T00:39:03.058Z,101242.50
2022-10-17T00:41:35.317Z,101242.59
2022-10-17T00:44:10.536Z,101236.69
2022-10-17T00:46:42.022Z,101246.38
2022-10-17T00:49:14.378Z,101245.53
2022-10-17T00:51:47.564Z,101251.84
2022-10-17T00:54:20.563Z,101253.06
2022-10-17T00:56:51.471Z,101241.00
2022-10-17T00:59:25.640Z,101247.22
2022-10-17T01:01:59.705Z,101249.84
2022-10-17T01:04:29.805Z,101244.75
2022-10-17T01:06:59.797Z,101236.75
2022-10-17T01:09:30.183Z,101243.72
2022-10-17T01:12:07.383Z,101244.56
2022-10-17T01:14:49.889Z,101249.00
2022-10-17T01:17:28.176Z,101249.00
2022-10-17T01:20:26.393Z,101242.19
2022-10-17T01:23:08.171Z,101242.38
2022-10-17T01:25:52.582Z,101246.09
2022-10-17T01:28:46.921Z,101238.34
2022-10-17T01:31:23.814Z,101245.50
2022-10-17T01:34:05.515Z,101240.31
2022-10-17T01:36:42.316Z,101233.44
2022-10-17T01:39:19.451Z,101233.78
2022-10-17T01:41:55.409Z,101235.84
2022-10-17T01:44:32.670Z,101233.50
2022-10-17T01:47:09.472Z,101236.97
2022-10-17T01:49:42.124Z,101239.72
2022-10-17T01:52:16.691Z,101244.91
2022-10-17T01:54:51.121Z,101243.28
2022-10-17T01:57:28.532Z,101244.22
2022-10-17T02:00:00.154Z,101242.63
2022-10-17T02:02:35.650Z,101244.22
2022-10-17T02:05:07.105Z,101240.06
2022-10-17T02:07:37.246Z,101253.44
2022-10-17T02:10:18.700Z,101248.06
2022-10-17T02:12:59.356Z,101240.25
2022-10-17T02:15:48.481Z,101235.81
2022-10-17T02:18:31.983Z,101240.25
2022-10-17T02:21:06.489Z,101245.50
2022-10-17T02:23:43.092Z,101245.50
2022-10-17T02:26:20.012Z,101241.09
2022-10-17T02:28:59.342Z,101249.75
2022-10-17T02:31:34.182Z,101251.56
2022-10-17T02:34:09.793Z,101248.16
2022-10-17T02:36:45.402Z,101238.88
2022-10-17T02:39:16.402Z,101253.69
2022-10-17T02:41:48.438Z,101261.69
2022-10-17T02:44:19.548Z,101256.56
2022-10-17T02:46:56.757Z,101259.47
2022-10-17T02:49:33.569Z,101257.00
2022-10-17T02:52:09.429Z,101265.78
2022-10-17T02:54:44.191Z,101269.44
2022-10-17T02:57:19.793Z,101267.75
2022-10-17T02:59:50.948Z,101264.34
2022-10-17T03:02:21.205Z,101267.16
2022-10-17T03:04:53.975Z,101261.03
2022-10-17T03:07:23.942Z,101269.19
2022-10-17T03:09:53.927Z,101267.75
2022-10-17T03:12:23.862Z,101268.09
2022-10-17T03:14:53.880Z,101266.31
2022-10-17T03:17:23.850Z,101264.63
2022-10-17T03:19:56.569Z,101260.38
2022-10-17T03:22:26.959Z,101264.97
2022-10-17T03:24:57.099Z,101280.84
2022-10-17T03:27:27.479Z,101274.81
2022-10-17T03:29:57.965Z,101280.94
2022-10-17T03:32:28.007Z,101280.09
2022-10-17T03:35:00.617Z,101291.66
2022-10-17T03:37:31.027Z,101290.78
2022-10-17T03:40:01.582Z,101291.72
2022-10-17T03:42:31.583Z,101294.81
2022-10-17T03:45:01.564Z,101289.63
2022-10-17T03:47:32.404Z,101292.41
2022-10-17T03:50:09.016Z,101298.53
2022-10-17T03:52:38.936Z,101296.91
2022-10-17T03:55:09.780Z,101299.88
2022-10-17T03:57:42.144Z,101308.88
2022-10-17T04:00:16.323Z,101309.81
2022-10-17T04:02:46.412Z,101316.00
2022-10-17T04:05:21.324Z,101317.28
2022-10-17T04:07:51.352Z,101324.59
2022-10-17T04:10:21.855Z,101316.94
2022-10-17T04:12:51.879Z,101318.72
2022-10-17T04:15:21.934Z,101322.28
2022-10-17T04:17:52.047Z,101329.47
2022-10-17T04:20:24.816Z,101331.34
2022-10-17T04:22:54.791Z,101329.56
2022-10-17T04:25:24.813Z,101334.97
2022-10-17T04:27:54.959Z,101328.94
2022-10-17T04:30:24.905Z,101333.47
2022-10-17T04:32:54.930Z,101337.03
2022-10-17T04:35:27.485Z,101340.50
2022-10-17T04:37:57.541Z,101336.19
2022-10-17T04:40:27.669Z,101335.31
2022-10-17T04:42:57.641Z,101339.66
2022-10-17T04:45:27.600Z,101344.00
2022-10-17T04:47:57.509Z,101341.16
2022-10-17T04:50:30.146Z,101338.53
2022-10-17T04:53:00.103Z,101345.50
2022-10-17T04:55:30.237Z,101343.81
2022-10-17T04:58:00.706Z,101352.47
2022-10-17T05:00:30.808Z,101355.97
2022-10-17T05:03:00.829Z,101349.00
2022-10-17T05:05:33.718Z,101349.84
2022-10-17T05:08:03.768Z,101353.19
2022-10-17T05:10:33.919Z,101352.25
2022-10-17T05:13:03.830Z,101352.09
2022-10-17T05:15:33.872Z,101354.50
2022-10-17T05:18:03.898Z,101359.53
2022-10-17T05:20:36.637Z,101348.44
2022-10-17T05:23:06.690Z,101358.50
2022-10-17T05:25:36.616Z,101372.41
2022-10-17T05:28:06.638Z,101372.09
2022-10-17T05:30:37.828Z,101373.50
2022-10-17T05:33:07.799Z,101380.22
2022-10-17T05:35:40.362Z,101383.28
2022-10-17T05:38:10.408Z,101392.56
2022-10-17T05:40:41.277Z,101393.88
2022-10-17T05:43:11.258Z,101401.41
2022-10-17T05:45:41.312Z,101382.88
2022-10-17T05:48:12.030Z,101396.94
2022-10-17T05:50:44.710Z,101397.97
2022-10-17T05:53:15.059Z,101400.34
2022-10-17T05:55:45.053Z,101397.53
2022-10-17T05:58:22.288Z,101413.88
2022-10-17T06:01:01.312Z,101412.72
2022-10-17T06:03:31.734Z,101413.31
2022-10-17T06:06:10.697Z,101415.03
2022-10-17T06:08:41.089Z,101425.25
2022-10-17T06:11:11.431Z,101406.41
2022-10-17T06:13:41.979Z,101425.84
2022-10-17T06:16:12.043Z,101428.22
2022-10-17T06:18:42.358Z,101433.91
2022-10-17T06:21:17.970Z,101444.47
2022-10-17T06:23:47.963Z,101443.66
2022-10-17T06:26:18.012Z,101448.69
2022-10-17T06:28:48.885Z,101458.94
2022-10-17T06:31:20.568Z,101446.03
2022-10-17T06:33:50.580Z,101445.63
2022-10-17T06:36:23.159Z,101455.19
2022-10-17T06:38:53.165Z,101463.34
2022-10-17T06:41:23.190Z,101466.88
2022-10-17T06:43:54.026Z,101465.53
2022-10-17T06:46:26.804Z,101469.03
2022-10-17T06:48:56.929Z,101471.31
2022-10-17T06:51:29.508Z,101469.03
2022-10-17T06:54:00.961Z,101475.09
2022-10-17T06:56:30.945Z,101469.78
2022-10-17T06:59:01.005Z,101475.56
2022-10-17T07:01:30.994Z,101476.53
2022-10-17T07:04:00.962Z,101474.28
2022-10-17T07:06:34.044Z,101478.34
2022-10-17T07:09:06.810Z,101472.53
2022-10-17T07:11:37.803Z,101484.59
2022-10-17T07:14:07.786Z,101481.50
2022-10-17T07:16:38.121Z,101482.56
2022-10-17T07:19:08.289Z,101489.03
2022-10-17T07:21:40.894Z,101491.28
2022-10-17T07:24:11.000Z,101488.88
2022-10-17T07:26:41.075Z,101486.75
2022-10-17T07:29:12.204Z,101485.97
2022-10-17T07:31:42.502Z,101484.56
2022-10-17T07:34:12.547Z,101494.47
2022-10-17T07:36:45.200Z,101496.38
2022-10-17T07:39:15.550Z,101499.19
2022-10-17T07:41:45.507Z,101495.34
2022-10-17T07:44:15.563Z,101498.03
2022-10-17T07:46:45.623Z,101502.41
2022-10-17T07:49:15.730Z,101502.22
2022-10-17T07:51:48.259Z,101508.84
2022-10-17T07:54:18.254Z,101494.97
2022-10-17T07:56:50.863Z,101500.81
2022-10-17T07:59:21.470Z,101506.38
2022-10-17T08:01:51.494Z,101507.53
2022-10-17T08:04:21.484Z,101503.09
2022-10-17T08:07:05.452Z,101511.31
2022-10-17T08:09:44.505Z,101507.94
2022-10-17T08:12:15.045Z,101511.47
2022-10-17T08:14:45.394Z,101506.28
2022-10-17T08:17:15.324Z,101507.00
2022-10-17T08:19:48.760Z,101495.09
2022-10-17T08:22:34.247Z,101503.81
2022-10-17T08:25:04.233Z,101504.44
2022-10-17T08:27:35.827Z,101501.09
2022-10-17T08:30:09.697Z,101492.25
2022-10-17T08:32:39.449Z,101496.47
2022-10-17T08:35:10.275Z,101488.19
2022-10-17T08:37:42.962Z,101504.41
2022-10-17T08:40:20.291Z,101498.38
2022-10-17T08:43:22.466Z,101503.75
2022-10-17T08:45:56.176Z,101500.91
2022-10-17T08:48:28.624Z,101499.91
2022-10-17T08:51:03.109Z,101495.88
2022-10-17T08:53:40.542Z,101502.75
2022-10-17T08:56:19.740Z,101507.31
2022-10-17T08:58:55.296Z,101497.69
2022-10-17T09:01:37.753Z,101506.63
2022-10-17T09:04:50.057Z,101505.84
2022-10-17T09:07:25.556Z,101502.31
2022-10-17T09:10:07.337Z,101500.88
2022-10-17T09:12:46.807Z,101500.56
2022-10-17T09:15:43.631Z,101485.59
2022-10-17T09:18:22.099Z,101502.25
2022-10-17T09:20:58.078Z,101498.72
2022-10-17T09:23:31.134Z,101498.56
2022-10-17T09:26:04.492Z,101497.38
2022-10-17T09:28:37.117Z,101503.56
2022-10-17T09:31:10.245Z,101503.06
2022-10-17T09:33:53.735Z,101500.81
2022-10-17T09:36:27.704Z,101501.88
2022-10-17T09:39:00.843Z,101506.28
2022-10-17T09:41:46.898Z,101503.63
2022-10-17T09:44:22.104Z,101499.28
2022-10-17T09:47:11.822Z,101495.19
2022-10-17T09:49:43.880Z,101489.81
2022-10-17T09:52:17.809Z,101492.19
2022-10-17T09:54:50.726Z,101493.78
2022-10-17T09:57:25.627Z,101496.81
2022-10-17T10:00:01.764Z,101495.00
2022-10-17T10:02:39.997Z,101486.78
2022-10-17T10:05:20.174Z,101484.59
2022-10-17T10:08:08.702Z,101495.22
2022-10-17T10:10:38.797Z,101494.53
2022-10-17T10:13:20.635Z,101490.31
2022-10-17T10:15:52.659Z,101489.31
2022-10-17T10:18:40.547Z,101494.69
2022-10-17T10:21:13.688Z,101499.91
2022-10-17T10:23:45.389Z,101498.91
2022-10-17T10:26:24.448Z,101500.75
2022-10-17T10:29:01.807Z,101494.19
2022-10-17T10:31:35.402Z,101492.63
2022-10-17T10:34:21.599Z,101497.72
2022-10-17T10:36:59.411Z,101488.81
2022-10-17T10:39:35.933Z,101489.66
2022-10-17T10:42:09.311Z,101487.97
2022-10-17T10:44:42.650Z,101491.69
2022-10-17T10:47:26.322Z,101488.66
2022-10-17T10:50:20.295Z,101490.84
2022-10-17T10:52:57.391Z,101488.66
2022-10-17T10:55:32.637Z,101485.94
2022-10-17T10:58:09.767Z,101484.59
2022-10-17T11:00:42.887Z,101489.78
2022-10-17T11:03:19.207Z,101480.56
2022-10-17T11:05:54.347Z,101478.03
2022-10-17T11:08:32.029Z,101472.66
2022-10-17T11:11:13.820Z,101462.03
2022-10-17T11:13:49.640Z,101467.25
2022-10-17T11:16:38.526Z,101478.88
2022-10-17T11:19:16.420Z,101465.75
2022-10-17T11:21:52.960Z,101462.03
2022-10-17T11:24:27.610Z,101460.00
2022-10-17T11:27:03.281Z,101453.97
2022-10-17T11:29:36.854Z,101458.84
2022-10-17T11:32:14.618Z,101455.63
2022-10-17T11:34:48.462Z,101453.09
2022-10-17T11:37:24.166Z,101449.91
2022-10-17T11:39:59.177Z,101447.06
2022-10-17T11:42:33.165Z,101447.88
2022-10-17T11:45:07.814Z,101443.34
2022-10-17T11:47:48.780Z,101446.69
2022-10-17T11:53:21.625Z,101436.44
2022-10-17T11:55:53.606Z,101434.09
2022-10-17T11:58:35.982Z,101442.84
2022-10-17T12:01:18.173Z,101442.34
2022-10-17T12:04:04.033Z,101432.44
2022-10-17T12:06:47.776Z,101436.94
2022-10-17T12:09:24.365Z,101437.81
2022-10-17T12:11:58.171Z,101430.41
2022-10-17T12:14:43.092Z,101425.34
2022-10-17T12:17:29.117Z,101441.34
2022-10-17T12:20:31.024Z,101427.88
2022-10-17T12:23:23.223Z,101434.09
2022-10-17T12:25:58.279Z,101433.91
2022-10-17T12:28:34.873Z,101435.28
2022-10-17T12:31:08.821Z,101426.22
2022-10-17T12:33:41.657Z,101414.41
2022-10-17T12:36:47.871Z,101422.50
2022-10-17T12:39:54.171Z,101425.72
2022-10-17T12:42:52.159Z,101425.03
2022-10-17T12:45:54.242Z,101417.78
2022-10-17T12:48:54.205Z,101407.19
2022-10-17T12:51:35.861Z,101418.09
2022-10-17T12:54:14.934Z,101409.53
2022-10-17T12:56:47.445Z,101406.47
2022-10-17T12:59:24.924Z,101404.97
2022-10-17T13:01:59.172Z,101395.72
2022-10-17T13:04:31.762Z,101398.41
2022-10-17T13:07:02.634Z,101394.19
2022-10-17T13:09:35.470Z,101389.66
2022-10-17T13:12:08.543Z,101393.50
2022-10-17T13:14:44.394Z,101398.19
2022-10-17T13:17:25.515Z,101398.19
2022-10-17T13:19:57.020Z,101394.78
2022-10-17T13:22:29.389Z,101397.84
2022-10-17T13:25:10.339Z,101399.69
2022-10-17T13:27:40.691Z,101401.53
2022-10-17T13:30:33.562Z,101401.03
2022-10-17T13:33:04.262Z,101391.25
2022-10-17T13:38:32.710Z,101405.84
2022-10-17T13:41:30.487Z,101403.34
2022-10-17T13:43:54.883Z,101397.41
2022-10-17T13:46:37.789Z,101397.59
2022-10-17T13:49:18.516Z,101395.63
2022-10-17T13:51:50.822Z,101390.63
2022-10-17T13:54:42.921Z,101389.97
2022-10-17T13:57:22.246Z,101391.41
2022-10-17T13:59:55.198Z,101394.41
2022-10-17T14:02:29.752Z,101395.94
2022-10-17T14:05:16.717Z,101391.34
2022-10-17T14:10:46.145Z,101390.59
2022-10-17T14:13:25.502Z,101389.59
2022-10-17T14:15:56.691Z,101383.38
2022-10-17T14:18:35.942Z,101379.16
2022-10-17T14:24:16.958Z,101382.84
2022-10-17T14:26:50.846Z,101380.09
2022-10-17T14:29:27.195Z,101378.00
2022-10-17T14:32:06.525Z,101372.84
2022-10-17T14:34:41.673Z,101373.63
2022-10-17T14:37:13.361Z,101372.78
2022-10-17T14:39:43.995Z,101379.94
2022-10-17T14:42:21.817Z,101379.88
2022-10-17T14:44:53.760Z,101380.63
2022-10-17T14:47:42.669Z,101379.59
2022-10-17T14:50:28.483Z,101378.28
2022-10-17T14:53:03.609Z,101385.09
2022-10-17T14:55:35.095Z,101382.34
2022-10-17T14:58:18.178Z,101384.94
2022-10-17T15:00:48.293Z,101382.06
2022-10-17T15:03:19.429Z,101378.16
2022-10-17T15:05:56.213Z,101381.06
2022-10-17T15:08:27.270Z,101384.91
2022-10-17T15:10:57.385Z,101377.09
2022-10-17T15:13:29.056Z,101375.59
2022-10-17T15:16:01.003Z,101377.72
2022-10-17T15:18:30.922Z,101372.81
2022-10-17T15:21:05.273Z,101373.28
2022-10-17T15:23:47.728Z,101377.28
2022-10-17T15:26:20.751Z,101377.13
2022-10-17T15:28:52.375Z,101373.19
2022-10-17T15:31:24.701Z,101381.34
2022-10-17T15:33:55.256Z,101385.13
2022-10-17T15:36:29.987Z,101374.53
2022-10-17T15:39:01.577Z,101374.13
2022-10-17T15:41:33.101Z,101383.06
2022-10-17T15:44:03.130Z,101391.47
2022-10-17T15:46:35.876Z,101386.22
2022-10-17T15:49:07.701Z,101387.59
2022-10-17T15:51:40.315Z,101391.28
2022-10-17T15:54:10.342Z,101387.88
2022-10-17T15:56:45.636Z,101388.06
2022-10-17T15:59:18.492Z,101389.13
2022-10-17T16:01:48.809Z,101398.16
2022-10-17T16:04:19.076Z,101407.47
2022-10-17T16:06:51.665Z,101399.78
2022-10-17T16:09:21.745Z,101410.59
2022-10-17T16:11:51.712Z,101413.41
2022-10-17T16:14:21.947Z,101413.91
2022-10-17T16:16:51.987Z,101417.72
2022-10-17T16:19:22.893Z,101424.25
2022-10-17T16:21:59.591Z,101433.00
2022-10-17T16:24:32.132Z,101421.50
2022-10-17T16:27:02.191Z,101424.91
2022-10-17T16:29:32.710Z,101424.41
2022-10-17T16:32:02.761Z,101427.53
2022-10-17T16:34:32.721Z,101431.06
2022-10-17T16:37:05.335Z,101428.09
2022-10-17T16:39:35.378Z,101424.31
2022-10-17T16:42:10.545Z,101434.47
2022-10-17T16:44:40.499Z,101427.22
2022-10-17T16:47:11.564Z,101421.72
2022-10-17T16:49:44.448Z,101431.00
2022-10-17T16:52:18.324Z,101426.19
2022-10-17T16:54:48.417Z,101431.72
2022-10-17T16:57:19.318Z,101433.03
2022-10-17T16:59:49.705Z,101432.41
2022-10-17T17:02:21.295Z,101425.00
2022-10-17T17:04:55.075Z,101434.19
2022-10-17T17:07:29.508Z,101435.25
2022-10-17T17:09:59.998Z,101419.44
2022-10-17T17:12:29.950Z,101435.25
2022-10-17T17:14:59.987Z,101429.94
2022-10-17T17:17:49.286Z,101427.41
2022-10-17T17:20:23.039Z,101432.59
2022-10-17T17:22:55.737Z,101429.44
2022-10-17T17:25:25.927Z,101437.63
2022-10-17T17:27:56.166Z,101442.41
2022-10-17T17:30:26.266Z,101435.03
2022-10-17T17:32:56.264Z,101448.31
2022-10-17T17:35:26.265Z,101436.84
2022-10-17T17:37:59.080Z,101440.78
2022-10-17T17:40:29.089Z,101437.91
2022-10-17T17:45:49.035Z,101448.53
2022-10-17T17:48:19.238Z,101448.53
2022-10-17T17:50:49.486Z,101442.50
2022-10-17T17:53:22.242Z,101453.84
2022-10-17T17:56:03.865Z,101443.78
2022-10-17T17:58:37.909Z,101453.56
2022-10-17T18:01:14.313Z,101452.69
2022-10-17T18:03:45.206Z,101449.41
2022-10-17T18:06:15.458Z,101445.34
2022-10-17T18:08:50.605Z,101444.75
2022-10-17T18:11:22.079Z,101444.88
2022-10-17T18:13:56.791Z,101453.06
2022-10-17T18:16:27.752Z,101450.72
2022-10-17T18:18:59.510Z,101454.66
2022-10-17T18:21:32.687Z,101445.31
2022-10-17T18:24:06.546Z,101443.00
2022-10-17T18:26:36.990Z,101441.63
2022-10-17T18:29:07.369Z,101433.88
2022-10-17T18:31:38.180Z,101438.56
2022-10-17T18:34:08.787Z,101424.13
2022-10-17T18:36:39.229Z,101438.13
2022-10-17T18:39:12.129Z,101442.00
2022-10-17T18:41:42.223Z,101443.78
2022-10-17T18:44:12.824Z,101444.75
2022-10-17T18:46:43.186Z,101439.00
2022-10-17T18:49:15.348Z,101444.63
2022-10-17T18:51:45.844Z,101444.75
2022-10-17T18:54:20.687Z,101446.97
2022-10-17T18:56:54.536Z,101439.97
2022-10-17T18:59:24.953Z,101439.97
2022-10-17T19:01:55.282Z,101440.91
2022-10-17T19:04:25.596Z,101435.97
2022-10-17T19:06:55.608Z,101435.31
2022-10-17T19:09:28.222Z,101443.38
2022-10-17T19:11:58.203Z,101433.06
2022-10-17T19:14:28.818Z,101442.19
2022-10-17T19:16:59.754Z,101446.53
2022-10-17T19:19:29.885Z,101440.38
2022-10-17T19:22:00.617Z,101447.91
2022-10-17T19:24:33.265Z,101444.53
2022-10-17T19:27:04.245Z,101448.13
2022-10-17T19:29:34.609Z,101444.00
2022-10-17T19:32:14.093Z,101446.84
2022-10-17T19:34:46.942Z,101442.28
2022-10-17T19:37:16.964Z,101447.16
2022-10-17T19:39:53.999Z,101450.00
2022-10-17T19:42:24.065Z,101449.34
2022-10-17T19:44:54.058Z,101444.31
2022-10-17T19:47:24.261Z,101446.25
2022-10-17T19:49:54.457Z,101453.56
2022-10-17T19:52:24.577Z,101448.56
2022-10-17T19:54:57.141Z,101448.66
2022-10-17T19:57:27.320Z,101448.13
2022-10-17T19:59:57.959Z,101455.31
2022-10-17T20:02:28.171Z,101452.97
2022-10-17T20:05:13.810Z,101451.41
2022-10-17T20:07:47.981Z,101448.09
2022-10-17T20:10:22.495Z,101441.09
2022-10-17T20:12:52.490Z,101445.53
2022-10-17T20:15:22.407Z,101446.50
2022-10-17T20:17:54.962Z,101452.94
2022-10-17T20:20:25.199Z,101446.03
2022-10-17T20:22:55.255Z,101449.94
2022-10-17T20:25:27.908Z,101452.97
2022-10-17T20:27:58.466Z,101443.75
2022-10-17T20:30:28.511Z,101442.44
2022-10-17T20:32:58.666Z,101446.50
2022-10-17T20:35:28.733Z,101442.69
2022-10-17T20:37:58.741Z,101442.88
2022-10-17T20:40:35.535Z,101437.75
2022-10-17T20:43:07.190Z,101442.31
2022-10-17T20:45:50.573Z,101432.66
2022-10-17T20:48:25.204Z,101439.84
2022-10-17T20:50:56.085Z,101434.84
2022-10-17T20:53:36.936Z,101431.44
2022-10-17T20:56:12.444Z,101432.28
2022-10-17T20:58:42.480Z,101438.56
2022-10-17T21:01:13.847Z,101441.19
2022-10-17T21:03:46.482Z,101436.09
2022-10-17T21:06:17.460Z,101432.69
2022-10-17T21:08:47.920Z,101432.69
2022-10-17T21:11:24.763Z,101421.94
2022-10-17T21:13:58.396Z,101444.22
2022-10-17T21:16:29.810Z,101439.88
2022-10-17T21:19:00.844Z,101440.91
2022-10-17T21:21:33.929Z,101442.72
2022-10-17T21:24:05.530Z,101436.66
2022-10-17T21:26:39.709Z,101441.19
2022-10-17T21:29:10.453Z,101438.84
2022-10-17T21:31:45.077Z,101433.72
2022-10-17T21:34:17.645Z,101437.41
2022-10-17T21:36:47.701Z,101436.88
2022-10-17T21:39:18.914Z,101430.31
2022-10-17T21:41:51.540Z,101441.59
2022-10-17T21:44:23.873Z,101433.81
2022-10-17T21:46:54.735Z,101431.25
2022-10-17T21:49:26.907Z,101431.34
2022-10-17T21:51:56.929Z,101438.34
2022-10-17T21:54:26.959Z,101434.00
2022-10-17T21:56:59.608Z,101425.97
2022-10-17T21:59:31.663Z,101423.94
2022-10-17T22:02:01.628Z,101433.56
2022-10-17T22:04:34.260Z,101421.19
2022-10-17T22:07:04.229Z,101430.06
2022-10-17T22:09:35.017Z,101422.13
2022-10-17T22:12:07.801Z,101413.44
2022-10-17T22:14:37.792Z,101412.50
2022-10-17T22:17:07.774Z,101417.69
2022-10-17T22:19:40.968Z,101417.00
2022-10-17T22:22:10.965Z,101406.59
2022-10-17T22:24:41.027Z,101409.25
2022-10-17T22:27:13.619Z,101412.94
2022-10-17T22:29:43.723Z,101417.38
2022-10-17T22:32:16.336Z,101412.94
2022-10-17T22:34:48.632Z,101416.53
2022-10-17T22:37:18.682Z,101416.63
2022-10-17T22:39:51.119Z,101418.50
2022-10-17T22:42:23.704Z,101415.75
2022-10-17T22:44:53.633Z,101417.56
2022-10-17T22:47:23.605Z,101411.31
2022-10-17T22:49:53.645Z,101415.94
2022-10-17T22:52:23.610Z,101411.72
2022-10-17T22:54:53.617Z,101413.72
2022-10-17T22:57:26.298Z,101404.34
2022-10-17T22:59:56.625Z,101406.22
2022-10-17T23:02:26.596Z,101404.53
2022-10-17T23:04:56.580Z,101404.53
2022-10-17T23:07:26.679Z,101404.53
2022-10-17T23:09:57.516Z,101389.88
2022-10-17T23:12:30.375Z,101395.25
2022-10-17T23:15:00.637Z,101397.25
2022-10-17T23:17:30.683Z,101398.31
2022-10-17T23:20:00.797Z,101397.47
2022-10-17T23:22:31.114Z,101396.69
2022-10-17T23:25:01.326Z,101394.91
2022-10-17T23:27:33.930Z,101393.28
2022-10-17T23:30:06.251Z,101388.09
2022-10-17T23:32:36.512Z,101387.25
2022-10-17T23:35:06.580Z,101386.56
2022-10-17T23:37:36.779Z,101381.47
2022-10-17T23:40:07.917Z,101380.72
2022-10-17T23:42:40.584Z,101384.31
2022-10-17T23:45:12.034Z,101378.16
2022-10-17T23:47:42.312Z,101383.53
2022-10-17T23:50:13.687Z,101383.72
2022-10-17T23:52:43.834Z,101386.75
2022-10-17T23:55:14.078Z,101381.47
2022-10-17T23:57:46.726Z,101380.63
